createdAt,value
2022-08-07T00:11:20.781Z,1422.50582
2022-08-07T00:26:59.124Z,1453.36277
2022-08-07T00:42:08.432Z,1464.48139
2022-08-07T00:57:10.358Z,1453.36277
2022-08-07T01:12:28.458Z,1439.31308
2022-08-07T01:27:32.714Z,1422.50582
2022-08-07T01:42:37.551Z,1352.17004
2022-08-07T01:58:01.191Z,1306.04339
2022-08-07T02:13:08.835Z,1211.57374
2022-08-07T02:28:11.405Z,1241.89115
2022-08-07T02:43:13.371Z,1237.30429
2022-08-07T02:58:15.230Z,1440.86073
2022-08-07T03:13:19.781Z,1755.07581
2022-08-07T03:28:37.707Z,1932.22833
2022-08-07T03:43:56.746Z,2121.93241
2022-08-07T03:59:08.457Z,2237.06228
2022-08-07T04:14:37.998Z,2209.39869
2022-08-07T04:29:58.503Z,2257.79326
2022-08-07T04:45:08.092Z,2273.11331
2022-08-07T05:00:17.335Z,2330.43529
2022-08-07T05:15:23.650Z,2205.76182
2022-08-07T05:30:32.688Z,2198.52388
2022-08-07T05:45:47.008Z,2106.91874
2022-08-07T06:00:50.999Z,2244.55662
2022-08-07T06:15:53.018Z,2189.54299
2022-08-07T06:30:55.917Z,2120.25367
2022-08-07T06:46:00.820Z,2187.75561
2022-08-07T07:01:03.137Z,2203.94787
2022-08-07T07:16:06.142Z,2211.22163
2022-08-07T07:31:07.965Z,2238.93117
2022-08-07T07:46:39.931Z,2271.18695
2022-08-07T08:02:02.128Z,2296.48723
2022-08-07T08:18:36.834Z,2275.04295
2022-08-07T08:33:39.003Z,2320.34683
2022-08-07T08:48:45.614Z,2382.22273
2022-08-07T09:03:55.200Z,2350.8777
2022-08-07T09:18:58.835Z,2429.73759
2022-08-07T09:34:00.853Z,2467.77215
2022-08-07T09:50:01.221Z,2340.61186
2022-08-07T10:05:38.663Z,2414.41493
2022-08-07T10:21:03.283Z,2511.7156
2022-08-07T10:36:29.344Z,2495.34502
2022-08-07T10:51:57.359Z,2363.31621
2022-08-07T11:07:15.066Z,2200.32891
2022-08-07T11:22:59.002Z,2392.85765
2022-08-07T11:38:10.401Z,2418.77307
2022-08-07T11:53:14.857Z,2363.31621
2022-08-07T12:08:25.692Z,2308.35537
2022-08-07T12:24:05.069Z,2342.65785
2022-08-07T12:39:41.884Z,2394.99604
2022-08-07T12:54:55.059Z,2363.31621
2022-08-07T13:10:28.434Z,2198.52388
2022-08-07T13:25:41.667Z,2257.79326
2022-08-07T13:40:43.921Z,2403.58795
2022-08-07T13:55:54.359Z,2414.41493
2022-08-07T14:11:01.913Z,2318.33961
2022-08-07T14:26:28.079Z,2203.94787
2022-08-07T14:41:33.952Z,2154.34134
2022-08-07T14:57:22.919Z,2173.56093
2022-08-07T15:13:11.368Z,2178.86229
2022-08-07T15:28:31.155Z,2163.03521
2022-08-07T15:43:55.637Z,2038.02331
2022-08-07T15:58:59.066Z,1953.35327
2022-08-07T16:14:02.905Z,1930.83623
2022-08-07T16:30:06.825Z,1946.26048
2022-08-07T16:45:15.121Z,1966.25142
2022-08-07T17:00:33.314Z,2004.48816
2022-08-07T17:15:44.158Z,2007.49114
2022-08-07T17:30:58.486Z,1876.7512
2022-08-07T17:46:01.134Z,1870.20287
2022-08-07T18:01:03.516Z,1883.34554
2022-08-07T18:16:31.118Z,1820.65267
2022-08-07T18:31:40.424Z,1804.7143
2022-08-07T18:46:43.293Z,1839.39652
2022-08-07T19:02:18.366Z,1847.00256
2022-08-07T19:18:04.048Z,1855.95618
2022-08-07T19:33:12.862Z,1876.7512
2022-08-07T19:48:18.911Z,1883.34554
2022-08-07T20:03:34.053Z,1902.0587
2022-08-07T20:18:38.157Z,1867.59632
2022-08-07T20:33:42.540Z,1847.00256
2022-08-07T20:49:54.636Z,1843.19169
2022-08-07T21:05:04.629Z,1796.24714
2022-08-07T21:20:16.245Z,1764.31913
2022-08-07T21:35:34.611Z,1727.91797
2022-08-07T21:51:06.489Z,1688.72135
2022-08-07T22:06:30.345Z,1644.17227
2022-08-07T22:22:04.882Z,1527.93664
2022-08-07T22:37:13.077Z,1498.88195
2022-08-07T22:52:19.567Z,1475.77144
2022-08-07T23:07:42.107Z,1450.21697
2022-08-07T23:22:45.185Z,1443.96603
2022-08-07T23:38:00.993Z,1425.53243
2022-08-07T23:53:06.168Z,1428.57194
